Time;durP1;ratioP1;P1;durP2;ratioP2;P2;SDS_P1;SDS_P2;PMS_P1;PMS_P2;Temp;Humidity;BMP_temperature;BMP_pressure;BME280_temperature;BME280_humidity;BME280_pressure;Samples;Min_cycle;Max_cycle;Signal;HPM_P1;HPM_P2
2023/12/15 00:01:27;;;;;;;46.67;39.92;;;;;;;;;;5017432;28;25069;-75
2023/12/15 00:03:53;;;;;;;65.70;44.35;;;;;;;;;;5015647;28;25095;-75
2023/12/15 00:06:19;;;;;;;61.53;46.40;;;;;;;;;;5013334;28;25071;-75
2023/12/15 00:08:45;;;;;;;71.80;48.33;;;;;;;;;;5012855;28;25078;-74
2023/12/15 00:11:11;;;;;;;57.10;44.33;;;;;;;;;;5010953;28;25058;-73
2023/12/15 00:13:37;;;;;;;63.20;46.95;;;;;;;;;;5013740;28;25148;-74
2023/12/15 00:16:03;;;;;;;61.35;45.40;;;;;;;;;;5012638;28;25064;-74
2023/12/15 00:18:29;;;;;;;60.28;46.60;;;;;;;;;;5014158;28;25080;-73
2023/12/15 00:20:54;;;;;;;77.10;49.42;;;;;;;;;;5012238;28;25057;-74
2023/12/15 00:23:20;;;;;;;62.53;50.20;;;;;;;;;;5015057;28;25071;-74
2023/12/15 00:25:46;;;;;;;80.20;49.65;;;;;;;;;;5009806;28;25125;-73
2023/12/15 00:28:12;;;;;;;65.35;46.55;;;;;;;;;;5013853;28;25069;-73
2023/12/15 00:30:38;;;;;;;69.28;50.20;;;;;;;;;;5012152;28;25049;-72
2023/12/15 00:33:04;;;;;;;70.00;48.65;;;;;;;;;;5011227;28;25065;-73
2023/12/15 00:35:30;;;;;;;68.03;46.92;;;;;;;;;;5008878;28;25105;-74
2023/12/15 00:37:56;;;;;;;76.53;52.92;;;;;;;;;;5010526;28;25156;-73
2023/12/15 00:40:23;;;;;;;88.65;53.33;;;;;;;;;;5011729;28;25076;-73
2023/12/15 00:42:49;;;;;;;59.65;45.25;;;;;;;;;;5010342;28;25137;-73
2023/12/15 00:45:15;;;;;;;73.88;50.13;;;;;;;;;;5004591;28;25069;-74
2023/12/15 00:47:41;;;;;;;81.32;50.35;;;;;;;;;;5029419;28;25041;-74
2023/12/15 00:50:07;;;;;;;63.35;48.00;;;;;;;;;;5013043;28;25154;-73
2023/12/15 00:52:33;;;;;;;82.15;50.70;;;;;;;;;;5010678;28;25149;-73
2023/12/15 00:54:59;;;;;;;64.25;45.05;;;;;;;;;;5011561;28;25167;-73
2023/12/15 00:57:25;;;;;;;70.70;49.70;;;;;;;;;;5011450;28;25080;-74
2023/12/15 00:59:51;;;;;;;85.10;51.03;;;;;;;;;;5008578;28;25106;-74
2023/12/15 01:02:17;;;;;;;75.53;52.75;;;;;;;;;;5009847;28;25078;-73
2023/12/15 01:04:43;;;;;;;69.18;52.25;;;;;;;;;;5012245;28;25074;-73
2023/12/15 01:07:09;;;;;;;67.43;47.45;;;;;;;;;;5015732;28;25119;-73
2023/12/15 01:09:36;;;;;;;81.32;52.35;;;;;;;;;;5007396;28;25127;-73
2023/12/15 01:12:02;;;;;;;71.47;48.33;;;;;;;;;;5011699;28;25055;-73
2023/12/15 01:14:28;;;;;;;63.10;48.08;;;;;;;;;;5016821;28;25059;-73
2023/12/15 01:16:54;;;;;;;85.22;54.03;;;;;;;;;;5010827;28;25121;-74
2023/12/15 01:19:20;;;;;;;83.50;53.70;;;;;;;;;;5011890;28;25176;-74
2023/12/15 01:21:46;;;;;;;89.50;54.72;;;;;;;;;;5010023;28;25083;-73
2023/12/15 01:24:12;;;;;;;67.47;50.58;;;;;;;;;;5010713;28;25067;-74
2023/12/15 01:26:38;;;;;;;67.20;51.22;;;;;;;;;;5015804;28;25066;-74
2023/12/15 01:29:04;;;;;;;68.50;47.83;;;;;;;;;;5006943;28;25069;-74
2023/12/15 01:31:31;;;;;;;90.65;53.47;;;;;;;;;;5010665;28;25057;-73
2023/12/15 01:33:57;;;;;;;95.32;56.92;;;;;;;;;;5004318;28;25152;-73
2023/12/15 01:36:23;;;;;;;79.45;51.22;;;;;;;;;;5003888;28;25089;-75
2023/12/15 01:38:49;;;;;;;75.95;51.63;;;;;;;;;;5013399;28;25091;-75
2023/12/15 01:41:15;;;;;;;75.82;49.72;;;;;;;;;;5012223;28;25079;-72
2023/12/15 01:43:41;;;;;;;75.13;53.63;;;;;;;;;;5012808;28;25054;-74
2023/12/15 01:46:07;;;;;;;81.28;51.85;;;;;;;;;;5012161;28;25120;-73
2023/12/15 01:48:33;;;;;;;78.10;53.30;;;;;;;;;;5001705;28;25114;-74
2023/12/15 01:50:59;;;;;;;69.57;51.97;;;;;;;;;;5014020;28;25058;-75
2023/12/15 01:53:25;;;;;;;84.88;54.92;;;;;;;;;;5016370;28;25069;-73
2023/12/15 01:55:51;;;;;;;82.88;53.95;;;;;;;;;;5017247;28;25156;-72
2023/12/15 01:58:17;;;;;;;84.20;54.78;;;;;;;;;;5017129;28;25079;-74
2023/12/15 02:00:46;;;;;;;88.82;58.13;;;;;;;;;;5010954;28;25143;-73
2023/12/15 02:03:12;;;;;;;80.28;54.17;;;;;;;;;;5011015;28;25052;-74
2023/12/15 02:05:38;;;;;;;76.65;55.65;;;;;;;;;;5012450;28;25088;-73
2023/12/15 02:08:04;;;;;;;72.85;50.05;;;;;;;;;;5014787;28;25068;-73
2023/12/15 02:10:30;;;;;;;80.88;55.28;;;;;;;;;;5025346;28;25074;-72
2023/12/15 02:12:56;;;;;;;70.88;49.92;;;;;;;;;;5012652;28;25078;-73
2023/12/15 02:15:22;;;;;;;69.97;51.00;;;;;;;;;;5010779;28;25157;-73
2023/12/15 02:17:48;;;;;;;79.00;54.13;;;;;;;;;;5007308;28;25103;-74
2023/12/15 02:20:14;;;;;;;79.40;52.53;;;;;;;;;;5027165;28;25089;-73
2023/12/15 02:22:40;;;;;;;78.05;53.35;;;;;;;;;;5013370;28;25160;-73
2023/12/15 02:25:06;;;;;;;87.43;56.35;;;;;;;;;;5001594;28;25081;-74
2023/12/15 02:27:33;;;;;;;81.72;55.08;;;;;;;;;;5011253;28;25070;-73
2023/12/15 02:29:59;;;;;;;63.95;49.03;;;;;;;;;;5010853;28;25074;-73
2023/12/15 02:32:25;;;;;;;92.15;58.25;;;;;;;;;;5011603;28;25056;-75
2023/12/15 02:34:51;;;;;;;85.38;57.35;;;;;;;;;;5009345;28;25114;-73
2023/12/15 02:37:17;;;;;;;91.95;57.40;;;;;;;;;;5011033;28;25051;-73
2023/12/15 02:39:43;;;;;;;90.07;57.38;;;;;;;;;;5011521;28;25122;-74
2023/12/15 02:42:09;;;;;;;89.90;57.00;;;;;;;;;;5014747;28;25051;-73
2023/12/15 02:44:35;;;;;;;84.82;58.35;;;;;;;;;;5008563;28;25073;-73
2023/12/15 02:47:01;;;;;;;86.05;58.42;;;;;;;;;;5009083;28;25104;-73
2023/12/15 02:49:27;;;;;;;86.65;59.75;;;;;;;;;;5013884;28;25056;-73
2023/12/15 02:51:53;;;;;;;93.00;57.58;;;;;;;;;;5011192;28;25083;-74
2023/12/15 02:54:19;;;;;;;104.60;61.05;;;;;;;;;;5011265;28;25130;-73
2023/12/15 02:56:45;;;;;;;77.65;56.88;;;;;;;;;;5009389;28;25083;-75
2023/12/15 02:59:11;;;;;;;109.60;63.10;;;;;;;;;;5010025;28;25056;-73
2023/12/15 03:01:37;;;;;;;101.32;61.78;;;;;;;;;;5010182;28;25071;-74
2023/12/15 03:04:03;;;;;;;95.53;59.17;;;;;;;;;;5009037;28;25158;-72
2023/12/15 03:06:29;;;;;;;80.95;55.60;;;;;;;;;;5006469;28;25090;-73
2023/12/15 03:08:55;;;;;;;93.20;60.38;;;;;;;;;;5015186;28;25082;-72
2023/12/15 03:11:22;;;;;;;100.53;60.90;;;;;;;;;;5012895;28;25062;-74
2023/12/15 03:13:48;;;;;;;93.45;61.85;;;;;;;;;;5007809;28;25176;-73
2023/12/15 03:16:14;;;;;;;93.25;60.45;;;;;;;;;;5011425;28;25083;-72
2023/12/15 03:18:40;;;;;;;69.60;52.08;;;;;;;;;;5011461;28;25171;-72
2023/12/15 03:21:06;;;;;;;86.28;56.90;;;;;;;;;;5014629;28;25074;-72
2023/12/15 03:23:32;;;;;;;89.30;60.15;;;;;;;;;;5011905;28;25106;-72
2023/12/15 03:25:58;;;;;;;89.65;60.60;;;;;;;;;;5013067;28;25138;-73
2023/12/15 03:28:24;;;;;;;77.70;54.13;;;;;;;;;;5014989;28;25088;-73
2023/12/15 03:30:50;;;;;;;98.30;64.65;;;;;;;;;;5014272;28;25063;-73
2023/12/15 03:33:16;;;;;;;80.43;57.97;;;;;;;;;;5010037;28;25149;-75
2023/12/15 03:35:42;;;;;;;92.28;61.65;;;;;;;;;;5011972;28;25056;-73
2023/12/15 03:38:09;;;;;;;99.95;62.25;;;;;;;;;;5009651;28;25068;-73
2023/12/15 03:40:35;;;;;;;95.07;60.50;;;;;;;;;;5011112;28;25079;-74
2023/12/15 03:43:01;;;;;;;75.78;54.75;;;;;;;;;;5007437;28;25071;-72
2023/12/15 03:45:27;;;;;;;83.70;60.33;;;;;;;;;;5013459;28;25056;-72
2023/12/15 03:47:53;;;;;;;77.65;55.88;;;;;;;;;;5007469;28;25080;-73
2023/12/15 03:50:19;;;;;;;75.30;57.65;;;;;;;;;;5014129;28;25062;-74
2023/12/15 03:52:45;;;;;;;97.00;63.55;;;;;;;;;;5014082;28;25078;-72
2023/12/15 03:55:11;;;;;;;78.13;55.42;;;;;;;;;;5018958;28;25078;-74
2023/12/15 03:57:37;;;;;;;70.15;53.60;;;;;;;;;;5018967;28;25157;-75
2023/12/15 04:00:03;;;;;;;94.38;59.83;;;;;;;;;;5014738;28;25070;-74
2023/12/15 04:02:29;;;;;;;100.32;61.60;;;;;;;;;;5009949;28;25071;-73
2023/12/15 04:04:55;;;;;;;79.82;58.08;;;;;;;;;;5012519;28;25092;-73
2023/12/15 04:07:21;;;;;;;74.72;56.10;;;;;;;;;;5007086;28;25072;-73
2023/12/15 04:09:47;;;;;;;91.50;61.58;;;;;;;;;;5011491;28;25134;-72
2023/12/15 04:12:13;;;;;;;69.97;51.63;;;;;;;;;;5012823;28;25135;-74
2023/12/15 04:14:39;;;;;;;69.00;52.88;;;;;;;;;;5014300;28;25078;-72
2023/12/15 04:17:05;;;;;;;95.22;62.47;;;;;;;;;;5015890;28;25066;-74
2023/12/15 04:19:31;;;;;;;79.05;56.75;;;;;;;;;;5021186;28;25056;-72
2023/12/15 04:21:57;;;;;;;84.07;58.92;;;;;;;;;;5014277;28;25072;-73
2023/12/15 04:24:25;;;;;;;75.40;54.15;;;;;;;;;;5013329;28;25071;-72
2023/12/15 04:26:51;;;;;;;71.82;51.95;;;;;;;;;;5010896;28;25068;-74
2023/12/15 04:29:17;;;;;;;87.00;59.72;;;;;;;;;;5011258;28;25075;-73
2023/12/15 04:31:43;;;;;;;86.20;59.53;;;;;;;;;;5013203;28;25054;-73
2023/12/15 04:34:09;;;;;;;95.10;60.00;;;;;;;;;;5011625;28;25058;-73
2023/12/15 04:36:35;;;;;;;95.85;60.83;;;;;;;;;;5010608;28;25158;-72
2023/12/15 04:39:02;;;;;;;80.18;57.50;;;;;;;;;;5009709;28;25086;-73
2023/12/15 04:41:28;;;;;;;84.40;56.90;;;;;;;;;;5012871;28;25074;-73
2023/12/15 04:43:55;;;;;;;82.00;58.38;;;;;;;;;;5012644;28;25073;-73
2023/12/15 04:46:28;;;;;;;63.80;50.67;;;;;;;;;;5012992;28;25068;-75
2023/12/15 04:48:54;;;;;;;66.20;51.90;;;;;;;;;;5015455;28;25088;-73
2023/12/15 04:51:20;;;;;;;87.53;60.72;;;;;;;;;;5006659;28;25166;-73
2023/12/15 04:53:48;;;;;;;87.22;58.88;;;;;;;;;;5009621;28;25083;-72
2023/12/15 04:56:15;;;;;;;84.70;58.67;;;;;;;;;;5011158;28;25063;-73
2023/12/15 04:58:41;;;;;;;76.78;56.15;;;;;;;;;;5011490;28;25164;-73
2023/12/15 05:01:12;;;;;;;75.60;54.83;;;;;;;;;;5013633;28;25108;-72
2023/12/15 05:03:38;;;;;;;92.55;59.97;;;;;;;;;;5011716;28;25174;-73
2023/12/15 05:06:04;;;;;;;73.97;54.20;;;;;;;;;;5012579;28;25104;-74
2023/12/15 05:08:30;;;;;;;90.68;58.05;;;;;;;;;;5013741;28;25059;-74
2023/12/15 05:10:57;;;;;;;93.43;60.63;;;;;;;;;;5013483;28;25094;-74
2023/12/15 05:13:23;;;;;;;73.43;51.97;;;;;;;;;;5011321;28;25110;-74
2023/12/15 05:15:49;;;;;;;92.85;57.25;;;;;;;;;;5009619;28;25063;-73
2023/12/15 05:18:17;;;;;;;81.15;55.88;;;;;;;;;;5007726;28;25051;-74
2023/12/15 05:20:43;;;;;;;82.95;57.38;;;;;;;;;;5010768;28;25079;-74
2023/12/15 05:23:11;;;;;;;73.22;54.08;;;;;;;;;;5009464;28;25049;-73
2023/12/15 05:25:36;;;;;;;80.03;54.35;;;;;;;;;;5015219;28;25049;-72
2023/12/15 05:28:03;;;;;;;79.82;54.50;;;;;;;;;;5013894;28;25087;-72
2023/12/15 05:30:29;;;;;;;79.70;54.03;;;;;;;;;;5011436;28;25092;-73
2023/12/15 05:32:55;;;;;;;74.03;53.08;;;;;;;;;;5012088;28;25100;-73
2023/12/15 05:35:21;;;;;;;74.72;52.83;;;;;;;;;;5007437;28;25054;-74
2023/12/15 05:37:49;;;;;;;77.70;50.83;;;;;;;;;;5012117;28;25071;-73
2023/12/15 05:40:15;;;;;;;66.53;48.88;;;;;;;;;;5010288;28;25080;-72
2023/12/15 05:42:42;;;;;;;79.30;51.78;;;;;;;;;;5007476;28;25059;-74
2023/12/15 05:45:08;;;;;;;84.63;55.35;;;;;;;;;;5009747;28;25080;-73
2023/12/15 05:47:34;;;;;;;78.10;51.90;;;;;;;;;;5005720;28;25063;-73
2023/12/15 05:50:00;;;;;;;80.10;50.72;;;;;;;;;;5009877;28;25050;-69
2023/12/15 05:52:32;;;;;;;76.57;51.60;;;;;;;;;;5077830;28;25097;-73
2023/12/15 05:54:58;;;;;;;62.25;43.22;;;;;;;;;;5027612;28;25079;-72
2023/12/15 05:57:24;;;;;;;73.32;49.90;;;;;;;;;;5041121;28;25120;-71
2023/12/15 05:59:50;;;;;;;68.10;47.03;;;;;;;;;;5050958;28;25142;-71
2023/12/15 06:02:16;;;;;;;62.03;46.00;;;;;;;;;;5046737;28;25119;-73
2023/12/15 06:04:42;;;;;;;64.88;45.35;;;;;;;;;;5047465;28;25060;-70
2023/12/15 06:07:09;;;;;;;60.80;45.22;;;;;;;;;;5044967;28;25072;-72
2023/12/15 06:09:36;;;;;;;69.05;46.30;;;;;;;;;;5040986;28;25088;-72
2023/12/15 06:12:02;;;;;;;67.28;45.55;;;;;;;;;;5044251;28;25059;-71
2023/12/15 06:14:28;;;;;;;70.43;47.70;;;;;;;;;;5045687;28;25072;-72
2023/12/15 06:16:54;;;;;;;76.93;45.70;;;;;;;;;;5043713;28;25076;-72
2023/12/15 06:19:20;;;;;;;62.30;42.22;;;;;;;;;;5047528;28;25088;-71
2023/12/15 06:21:47;;;;;;;48.72;39.65;;;;;;;;;;5052242;28;25057;-73
2023/12/15 06:24:13;;;;;;;56.72;43.00;;;;;;;;;;5047557;28;25054;-73
2023/12/15 06:26:39;;;;;;;68.85;45.92;;;;;;;;;;5050681;28;25057;-73
2023/12/15 06:29:05;;;;;;;55.53;43.00;;;;;;;;;;5055755;28;25086;-72
2023/12/15 06:31:31;;;;;;;55.45;41.15;;;;;;;;;;5042596;28;25101;-72
2023/12/15 06:33:57;;;;;;;63.63;44.30;;;;;;;;;;5047548;28;25048;-72
2023/12/15 06:36:23;;;;;;;61.20;40.58;;;;;;;;;;5038000;28;25136;-72
2023/12/15 06:38:49;;;;;;;64.05;42.75;;;;;;;;;;5051932;28;25117;-72
2023/12/15 06:41:15;;;;;;;57.58;41.00;;;;;;;;;;5044398;28;25136;-72
2023/12/15 06:43:41;;;;;;;54.55;39.05;;;;;;;;;;5042187;28;25082;-72
2023/12/15 06:46:07;;;;;;;59.55;37.88;;;;;;;;;;5046077;28;25070;-71
2023/12/15 06:48:34;;;;;;;56.88;40.50;;;;;;;;;;5046550;28;25098;-72
2023/12/15 06:51:00;;;;;;;57.92;39.13;;;;;;;;;;5045725;28;25073;-72
2023/12/15 06:53:26;;;;;;;60.55;39.17;;;;;;;;;;5042498;28;25071;-73
2023/12/15 06:55:52;;;;;;;57.60;39.25;;;;;;;;;;5036833;28;25095;-74
2023/12/15 06:58:18;;;;;;;47.42;34.08;;;;;;;;;;5033428;28;25084;-72
2023/12/15 07:00:44;;;;;;;62.38;37.72;;;;;;;;;;5040478;28;25073;-74
2023/12/15 07:03:10;;;;;;;52.80;38.90;;;;;;;;;;5033956;28;25070;-73
2023/12/15 07:05:36;;;;;;;51.88;35.38;;;;;;;;;;5025162;28;25074;-73
2023/12/15 07:08:05;;;;;;;53.10;33.10;;;;;;;;;;5030111;28;25068;-74
2023/12/15 07:10:32;;;;;;;55.83;36.22;;;;;;;;;;5029839;28;25135;-73
2023/12/15 07:12:58;;;;;;;64.97;36.60;;;;;;;;;;5032487;28;25062;-72
2023/12/15 07:15:27;;;;;;;51.22;36.38;;;;;;;;;;5022938;28;25059;-75
2023/12/15 07:17:53;;;;;;;41.75;30.42;;;;;;;;;;5030635;28;25152;-73
2023/12/15 07:20:20;;;;;;;45.80;32.42;;;;;;;;;;5023119;28;25062;-73
2023/12/15 07:22:46;;;;;;;53.30;35.75;;;;;;;;;;5028741;28;25160;-71
2023/12/15 07:25:12;;;;;;;49.17;32.00;;;;;;;;;;5028899;28;25064;-73
2023/12/15 07:27:38;;;;;;;62.30;33.20;;;;;;;;;;5029338;28;25093;-74
2023/12/15 07:30:04;;;;;;;55.40;33.35;;;;;;;;;;5027007;28;25094;-72
2023/12/15 07:32:30;;;;;;;52.83;33.33;;;;;;;;;;5026132;28;25064;-71
2023/12/15 07:34:57;;;;;;;53.08;31.30;;;;;;;;;;5025372;28;25056;-72
2023/12/15 07:37:23;;;;;;;48.35;32.22;;;;;;;;;;5030949;28;25055;-72
2023/12/15 07:39:49;;;;;;;49.38;30.95;;;;;;;;;;5034586;28;25049;-72
2023/12/15 07:42:15;;;;;;;47.30;31.25;;;;;;;;;;5031265;28;25107;-72
2023/12/15 07:44:41;;;;;;;41.90;27.40;;;;;;;;;;5033946;28;25099;-73
2023/12/15 07:47:07;;;;;;;42.20;30.60;;;;;;;;;;5033856;28;25068;-73
2023/12/15 07:49:34;;;;;;;39.08;29.98;;;;;;;;;;5027462;28;25070;-73
2023/12/15 07:52:00;;;;;;;45.05;32.08;;;;;;;;;;5033494;28;25128;-72
2023/12/15 07:54:26;;;;;;;48.72;31.17;;;;;;;;;;5031563;28;25066;-72
2023/12/15 07:56:52;;;;;;;44.83;30.25;;;;;;;;;;5034393;28;25171;-73
2023/12/15 07:59:18;;;;;;;47.70;30.85;;;;;;;;;;5034691;28;25115;-71
2023/12/15 08:01:51;;;;;;;46.78;30.23;;;;;;;;;;5030043;28;25131;-71
2023/12/15 08:04:18;;;;;;;50.13;30.88;;;;;;;;;;5031308;28;25080;-73
2023/12/15 08:06:44;;;;;;;48.17;28.90;;;;;;;;;;5026181;28;25046;-72
2023/12/15 08:09:10;;;;;;;50.58;29.25;;;;;;;;;;5031812;28;25129;-73
2023/12/15 08:11:37;;;;;;;46.63;29.48;;;;;;;;;;5028893;28;25074;-73
2023/12/15 08:14:03;;;;;;;52.72;28.45;;;;;;;;;;5028440;28;25130;-72
2023/12/15 08:16:33;;;;;;;40.97;28.15;;;;;;;;;;5026810;28;25063;-72
2023/12/15 08:18:59;;;;;;;38.10;26.15;;;;;;;;;;5025793;28;25097;-72
2023/12/15 08:21:25;;;;;;;46.30;26.85;;;;;;;;;;5032340;28;25073;-73
2023/12/15 08:23:51;;;;;;;44.05;26.05;;;;;;;;;;5024445;28;25062;-71
2023/12/15 08:26:21;;;;;;;45.90;26.95;;;;;;;;;;5023205;28;25054;-72
2023/12/15 08:28:47;;;;;;;32.92;25.92;;;;;;;;;;5028165;28;25093;-73
2023/12/15 08:31:13;;;;;;;38.05;24.42;;;;;;;;;;5027152;28;25088;-73
2023/12/15 08:33:39;;;;;;;42.42;25.63;;;;;;;;;;5030250;28;25122;-71
2023/12/15 08:36:05;;;;;;;34.47;24.23;;;;;;;;;;5039130;28;25074;-73
2023/12/15 08:38:31;;;;;;;40.60;24.38;;;;;;;;;;5036799;28;25086;-72
2023/12/15 08:40:58;;;;;;;39.88;24.23;;;;;;;;;;5025868;28;25064;-71
2023/12/15 08:43:25;;;;;;;45.55;23.08;;;;;;;;;;5030463;28;25158;-73
2023/12/15 08:45:51;;;;;;;37.15;22.13;;;;;;;;;;5029874;28;25084;-72
2023/12/15 08:48:17;;;;;;;36.65;21.00;;;;;;;;;;5027885;28;25075;-73
2023/12/15 08:50:43;;;;;;;40.70;22.25;;;;;;;;;;5030099;28;25157;-71
2023/12/15 08:53:09;;;;;;;36.70;21.30;;;;;;;;;;5026224;28;25056;-73
2023/12/15 08:55:35;;;;;;;42.17;20.25;;;;;;;;;;5028137;28;25075;-72
2023/12/15 08:58:01;;;;;;;32.92;18.95;;;;;;;;;;5026224;28;25159;-73
2023/12/15 09:00:27;;;;;;;34.20;18.90;;;;;;;;;;5030714;28;25131;-71
2023/12/15 09:02:53;;;;;;;44.70;20.42;;;;;;;;;;5025427;28;25058;-73
2023/12/15 09:05:20;;;;;;;30.00;18.10;;;;;;;;;;5027038;28;25153;-71
2023/12/15 09:07:46;;;;;;;31.30;17.65;;;;;;;;;;5030191;28;25097;-72
2023/12/15 09:10:12;;;;;;;32.67;19.48;;;;;;;;;;5029566;28;25155;-72
2023/12/15 09:12:39;;;;;;;42.90;17.58;;;;;;;;;;5025766;28;25063;-72
2023/12/15 09:15:05;;;;;;;32.83;15.35;;;;;;;;;;5030787;28;25108;-72
2023/12/15 09:17:31;;;;;;;35.35;15.20;;;;;;;;;;5027242;28;25175;-72
2023/12/15 09:19:57;;;;;;;30.50;13.98;;;;;;;;;;5028163;28;25082;-73
2023/12/15 09:22:23;;;;;;;30.40;14.15;;;;;;;;;;5026821;28;25082;-72
2023/12/15 09:24:49;;;;;;;33.05;13.65;;;;;;;;;;5025364;28;25069;-72
2023/12/15 09:27:15;;;;;;;28.55;13.10;;;;;;;;;;5023741;28;25044;-72
2023/12/15 09:29:40;;;;;;;30.75;12.60;;;;;;;;;;5024695;28;25074;-73
2023/12/15 09:32:06;;;;;;;30.67;12.77;;;;;;;;;;5018975;28;25077;-72
2023/12/15 09:34:32;;;;;;;28.75;12.45;;;;;;;;;;5024576;28;25058;-72
2023/12/15 09:36:58;;;;;;;29.35;11.40;;;;;;;;;;5023125;28;25102;-73
2023/12/15 09:39:24;;;;;;;31.33;11.85;;;;;;;;;;5024587;28;25137;-72
2023/12/15 09:41:50;;;;;;;28.70;12.05;;;;;;;;;;5017519;28;25137;-71
2023/12/15 09:44:18;;;;;;;33.15;12.05;;;;;;;;;;5020947;28;25046;-72
2023/12/15 09:46:44;;;;;;;29.60;11.23;;;;;;;;;;5022875;28;25078;-72
2023/12/15 09:49:16;;;;;;;26.52;10.10;;;;;;;;;;5025018;28;25080;-73
2023/12/15 09:51:44;;;;;;;30.48;11.23;;;;;;;;;;5021131;28;25133;-72
2023/12/15 09:54:11;;;;;;;30.30;11.30;;;;;;;;;;5022770;28;25089;-72
2023/12/15 09:56:37;;;;;;;41.33;12.27;;;;;;;;;;5022293;28;25087;-72
2023/12/15 09:59:03;;;;;;;22.83;10.60;;;;;;;;;;5023905;28;25082;-71
2023/12/15 10:01:29;;;;;;;32.40;11.65;;;;;;;;;;5024034;28;25111;-72
2023/12/15 10:03:55;;;;;;;28.98;10.70;;;;;;;;;;5023786;28;25076;-72
2023/12/15 10:06:21;;;;;;;24.60;9.40;;;;;;;;;;5023867;28;25069;-72
2023/12/15 10:08:47;;;;;;;24.92;10.48;;;;;;;;;;5024048;28;25060;-72
2023/12/15 10:11:13;;;;;;;26.92;10.13;;;;;;;;;;5014700;28;25062;-72
2023/12/15 10:13:40;;;;;;;30.48;9.60;;;;;;;;;;5020675;28;25065;-72
2023/12/15 10:16:06;;;;;;;28.15;9.13;;;;;;;;;;5016879;28;25131;-73
2023/12/15 10:18:32;;;;;;;31.45;10.18;;;;;;;;;;5023518;28;25084;-74
2023/12/15 10:20:58;;;;;;;26.38;8.40;;;;;;;;;;5024094;28;25088;-72
2023/12/15 10:23:28;;;;;;;28.40;8.05;;;;;;;;;;5017085;28;25065;-72
2023/12/15 10:25:54;;;;;;;23.42;8.63;;;;;;;;;;5022496;28;25067;-72
2023/12/15 10:28:20;;;;;;;20.00;7.40;;;;;;;;;;5016310;28;25100;-72
2023/12/15 10:30:46;;;;;;;25.50;8.35;;;;;;;;;;5016513;28;25052;-72
2023/12/15 10:33:18;;;;;;;25.52;7.82;;;;;;;;;;5022683;28;25065;-74
2023/12/15 10:35:47;;;;;;;24.60;8.25;;;;;;;;;;5016603;28;25119;-72
2023/12/15 10:38:13;;;;;;;24.98;7.40;;;;;;;;;;5023868;28;25062;-72
2023/12/15 10:40:39;;;;;;;17.17;6.70;;;;;;;;;;5016506;28;25056;-73
2023/12/15 10:43:05;;;;;;;24.23;8.05;;;;;;;;;;5026263;28;25120;-72
2023/12/15 10:45:32;;;;;;;19.35;6.78;;;;;;;;;;5028752;28;25086;-73
2023/12/15 10:47:58;;;;;;;21.58;7.30;;;;;;;;;;5026658;28;25100;-72
2023/12/15 10:50:25;;;;;;;22.00;6.13;;;;;;;;;;5024657;28;25054;-74
2023/12/15 10:52:52;;;;;;;20.00;6.63;;;;;;;;;;5026252;28;25089;-72
2023/12/15 10:55:23;;;;;;;21.48;6.30;;;;;;;;;;5023008;28;25090;-72
2023/12/15 10:57:49;;;;;;;36.00;7.40;;;;;;;;;;5018866;28;25071;-72
2023/12/15 11:00:18;;;;;;;21.23;5.80;;;;;;;;;;5025197;28;25055;-73
2023/12/15 11:02:48;;;;;;;21.33;5.57;;;;;;;;;;5020618;28;25062;-73
2023/12/15 11:05:15;;;;;;;20.58;5.95;;;;;;;;;;5024772;28;25054;-73
2023/12/15 11:07:41;;;;;;;23.67;6.15;;;;;;;;;;5020298;28;25142;-72
2023/12/15 11:10:09;;;;;;;16.05;5.38;;;;;;;;;;5022197;28;25169;-72
2023/12/15 11:12:39;;;;;;;18.77;6.05;;;;;;;;;;5023535;28;25071;-71
2023/12/15 11:15:05;;;;;;;23.10;5.57;;;;;;;;;;5016392;28;25046;-72
2023/12/15 11:17:32;;;;;;;18.88;5.75;;;;;;;;;;5023766;28;25059;-72
2023/12/15 11:20:03;;;;;;;16.42;5.35;;;;;;;;;;5027337;28;25131;-72
2023/12/15 11:22:29;;;;;;;13.70;5.18;;;;;;;;;;5025562;28;25109;-72
2023/12/15 11:24:57;;;;;;;17.58;5.57;;;;;;;;;;5025414;28;25060;-72
2023/12/15 11:27:24;;;;;;;20.88;6.38;;;;;;;;;;5026331;28;25067;-72
2023/12/15 11:29:50;;;;;;;22.35;6.20;;;;;;;;;;5019654;28;25070;-72
2023/12/15 11:32:28;;;;;;;31.60;6.25;;;;;;;;;;5026851;28;25068;-72
2023/12/15 11:34:54;;;;;;;17.10;5.88;;;;;;;;;;5026605;28;25103;-72
2023/12/15 11:37:21;;;;;;;16.83;5.72;;;;;;;;;;5021402;28;25187;-72
2023/12/15 11:39:47;;;;;;;23.58;5.07;;;;;;;;;;5023020;28;25062;-73
2023/12/15 11:42:15;;;;;;;21.55;4.75;;;;;;;;;;5018050;28;25109;-73
2023/12/15 11:44:44;;;;;;;13.68;4.28;;;;;;;;;;5019632;28;25142;-73
2023/12/15 11:47:10;;;;;;;16.33;4.53;;;;;;;;;;5022473;28;25176;-73
2023/12/15 11:49:42;;;;;;;21.38;4.32;;;;;;;;;;5021306;28;25090;-71
2023/12/15 11:52:10;;;;;;;;;;;;;;;;;;5020155;28;25130;-71
2023/12/15 11:54:36;;;;;;;18.83;4.95;;;;;;;;;;5025148;28;25121;-72
2023/12/15 11:57:05;;;;;;;19.98;4.80;;;;;;;;;;5025156;28;25053;-71
2023/12/15 11:59:34;;;;;;;19.52;4.53;;;;;;;;;;5024686;28;25047;-72
2023/12/15 12:02:00;;;;;;;26.00;5.53;;;;;;;;;;5013688;28;25063;-72
2023/12/15 12:04:30;;;;;;;20.40;4.78;;;;;;;;;;5027584;28;25045;-73
2023/12/15 12:06:56;;;;;;;19.17;5.55;;;;;;;;;;5027887;28;25058;-71
2023/12/15 12:09:22;;;;;;;23.20;4.88;;;;;;;;;;5013267;28;25059;-72
2023/12/15 12:11:48;;;;;;;23.65;6.47;;;;;;;;;;5024281;28;25046;-72
2023/12/15 12:14:14;;;;;;;17.02;4.15;;;;;;;;;;5024472;28;25135;-72
2023/12/15 12:16:40;;;;;;;17.65;4.97;;;;;;;;;;5024739;28;25081;-73
2023/12/15 12:19:06;;;;;;;22.50;5.97;;;;;;;;;;5023946;28;25130;-73
2023/12/15 12:21:32;;;;;;;20.17;4.70;;;;;;;;;;5023418;28;25077;-72
2023/12/15 12:23:59;;;;;;;24.45;5.10;;;;;;;;;;5021105;28;25076;-73
2023/12/15 12:26:26;;;;;;;17.17;4.43;;;;;;;;;;5020964;28;25071;-73
2023/12/15 12:28:53;;;;;;;16.00;4.05;;;;;;;;;;5021568;28;25081;-72
2023/12/15 12:31:19;;;;;;;17.35;4.38;;;;;;;;;;5020180;28;25063;-74
2023/12/15 12:33:45;;;;;;;19.00;4.63;;;;;;;;;;5021461;28;25164;-72
2023/12/15 12:36:14;;;;;;;15.32;4.18;;;;;;;;;;5024083;28;25059;-72
2023/12/15 12:38:40;;;;;;;27.02;4.30;;;;;;;;;;5012004;28;25094;-71
2023/12/15 12:41:06;;;;;;;16.23;4.53;;;;;;;;;;5018551;28;25083;-70
2023/12/15 12:43:35;;;;;;;19.52;4.10;;;;;;;;;;5017500;28;25152;-71
2023/12/15 12:46:01;;;;;;;16.63;3.80;;;;;;;;;;5020284;28;25064;-71
2023/12/15 12:48:29;;;;;;;22.10;4.22;;;;;;;;;;5023594;28;25061;-72
2023/12/15 12:50:55;;;;;;;12.43;3.70;;;;;;;;;;5020378;28;25070;-71
2023/12/15 12:53:21;;;;;;;12.07;3.00;;;;;;;;;;5022263;28;25064;-72
2023/12/15 12:55:48;;;;;;;14.57;3.80;;;;;;;;;;5019954;28;25064;-72
2023/12/15 12:58:14;;;;;;;20.52;3.67;;;;;;;;;;5020017;28;25100;-70
2023/12/15 13:00:40;;;;;;;17.65;4.47;;;;;;;;;;5023106;28;25134;-71
2023/12/15 13:03:06;;;;;;;13.25;3.88;;;;;;;;;;5025297;28;25088;-72
2023/12/15 13:05:32;;;;;;;14.15;3.42;;;;;;;;;;5025989;28;25076;-72
2023/12/15 13:07:58;;;;;;;15.77;4.13;;;;;;;;;;5025565;28;25077;-71
2023/12/15 13:10:24;;;;;;;16.52;4.28;;;;;;;;;;5028832;28;25059;-72
2023/12/15 13:12:54;;;;;;;15.30;3.25;;;;;;;;;;5025169;28;25068;-72
2023/12/15 13:15:21;;;;;;;16.65;3.17;;;;;;;;;;5022961;28;25071;-70
2023/12/15 13:17:47;;;;;;;13.02;3.40;;;;;;;;;;5022020;28;25061;-70
2023/12/15 13:20:13;;;;;;;14.32;3.50;;;;;;;;;;5024371;28;25053;-70
2023/12/15 13:22:39;;;;;;;12.88;3.65;;;;;;;;;;5024356;28;25093;-72
2023/12/15 13:25:10;;;;;;;17.50;3.63;;;;;;;;;;5024063;28;25095;-72
2023/12/15 13:27:36;;;;;;;15.43;3.10;;;;;;;;;;5027743;28;25154;-71
2023/12/15 13:30:02;;;;;;;15.90;3.45;;;;;;;;;;5020889;28;25093;-72
2023/12/15 13:32:29;;;;;;;9.88;2.95;;;;;;;;;;5023779;28;25051;-73
2023/12/15 13:34:55;;;;;;;11.07;3.15;;;;;;;;;;5022617;28;25151;-70
2023/12/15 13:37:21;;;;;;;12.40;3.13;;;;;;;;;;5023815;28;25106;-71
2023/12/15 13:39:47;;;;;;;13.85;3.13;;;;;;;;;;5017665;28;25161;-71
2023/12/15 13:42:13;;;;;;;11.13;3.00;;;;;;;;;;5024241;28;25071;-70
2023/12/15 13:44:39;;;;;;;15.70;2.97;;;;;;;;;;5021552;28;25075;-71
2023/12/15 13:47:05;;;;;;;12.05;3.25;;;;;;;;;;5019578;28;25127;-71
2023/12/15 13:49:32;;;;;;;12.88;3.25;;;;;;;;;;5022018;28;25076;-72
2023/12/15 13:51:58;;;;;;;12.75;2.60;;;;;;;;;;5033502;28;25083;-72
2023/12/15 13:54:24;;;;;;;20.25;2.90;;;;;;;;;;5036286;28;25131;-73
2023/12/15 13:56:52;;;;;;;16.20;3.20;;;;;;;;;;5034251;28;25065;-72
2023/12/15 13:59:19;;;;;;;11.52;2.80;;;;;;;;;;5026743;28;25059;-72
2023/12/15 14:01:45;;;;;;;17.15;3.38;;;;;;;;;;5018484;28;25157;-70
2023/12/15 14:04:11;;;;;;;9.63;2.75;;;;;;;;;;5024311;28;25052;-71
2023/12/15 14:06:37;;;;;;;9.95;2.92;;;;;;;;;;5025234;28;25138;-72
2023/12/15 14:09:03;;;;;;;16.58;2.38;;;;;;;;;;5021335;28;25070;-72
2023/12/15 14:11:29;;;;;;;14.90;2.83;;;;;;;;;;5018633;28;25074;-72
2023/12/15 14:13:55;;;;;;;12.10;2.70;;;;;;;;;;5026569;28;25173;-72
2023/12/15 14:16:21;;;;;;;10.52;3.35;;;;;;;;;;5027120;28;25093;-71